Time;durP1;ratioP1;P1;durP2;ratioP2;P2;SDS_P1;SDS_P2;PMS_P1;PMS_P2;Temp;Humidity;BMP_temperature;BMP_pressure;BME280_temperature;BME280_humidity;BME280_pressure;Samples;Min_cycle;Max_cycle;Signal;HPM_P1;HPM_P2
2022/09/18 00:01:40;;;;;;;14.20;9.10;;;;;;;15.02;100.00;99188.52;107774;1244;71470;-67
2022/09/18 00:04:15;;;;;;;13.00;8.70;;;;;;;15.01;100.00;99189.11;107774;1244;61606;-67
2022/09/18 00:06:44;;;;;;;14.30;9.10;;;;;;;15.08;100.00;99200.27;108034;1241;60525;-69
2022/09/18 00:09:14;;;;;;;13.70;8.90;;;;;;;15.13;100.00;99205.89;107748;1244;73406;-67
2022/09/18 00:11:48;;;;;;;11.10;7.70;;;;;;;15.06;100.00;99199.95;107760;1244;70325;-66
2022/09/18 00:14:21;;;;;;;11.10;8.20;;;;;;;15.11;100.00;99177.46;108046;1242;67909;-69
2022/09/18 00:16:50;;;;;;;12.20;8.80;;;;;;;15.12;100.00;99171.59;108086;1241;73892;-69
2022/09/18 00:19:20;;;;;;;13.60;8.80;;;;;;;15.10;100.00;99157.95;108026;1241;62550;-69
2022/09/18 00:21:50;;;;;;;11.60;8.20;;;;;;;15.14;100.00;99151.73;107742;1244;60173;-68
2022/09/18 00:24:21;;;;;;;11.80;7.40;;;;;;;15.11;100.00;99146.30;108027;1244;72251;-69
2022/09/18 00:26:49;;;;;;;9.80;7.30;;;;;;;15.13;100.00;99144.11;108108;1241;71358;-66
2022/09/18 00:29:18;;;;;;;11.70;7.50;;;;;;;15.09;100.00;99138.98;107707;1242;71134;-67
2022/09/18 00:31:47;;;;;;;11.80;7.60;;;;;;;15.16;100.00;99143.91;108075;1241;73962;-69
2022/09/18 00:34:16;;;;;;;11.50;8.00;;;;;;;15.13;100.00;99145.68;107922;1244;61008;-68
2022/09/18 00:36:45;;;;;;;11.20;8.00;;;;;;;15.09;100.00;99141.21;108096;1241;59610;-68
2022/09/18 00:39:13;;;;;;;12.40;7.10;;;;;;;15.07;100.00;99127.14;108122;1241;73764;-68
2022/09/18 00:41:43;;;;;;;11.00;7.90;;;;;;;15.12;100.00;99128.76;108076;1244;70794;-67
2022/09/18 00:44:33;;;;;;;10.60;7.40;;;;;;;15.13;100.00;99125.60;108168;1241;68722;-68
2022/09/18 00:47:10;;;;;;;11.00;7.30;;;;;;;15.15;100.00;99120.42;108009;1241;73077;-68
2022/09/18 00:50:32;;;;;;;10.40;6.20;;;;;;;15.15;100.00;99115.16;107700;1244;60443;-68
2022/09/18 00:53:06;;;;;;;9.20;6.90;;;;;;;15.22;100.00;99117.70;107123;1250;60535;-68
2022/09/18 00:55:37;;;;;;;9.00;6.30;;;;;;;15.20;100.00;99103.21;106638;1242;1680969;-68
2022/09/18 00:58:06;;;;;;;10.00;6.10;;;;;;;15.20;100.00;99106.91;107828;1241;71288;-67
2022/09/18 01:00:35;;;;;;;8.70;6.30;;;;;;;15.22;100.00;99102.95;107757;1244;71814;-69
2022/09/18 01:03:05;;;;;;;8.40;6.60;;;;;;;15.17;100.00;99096.10;107821;1244;74723;-68
2022/09/18 01:05:59;;;;;;;8.20;5.70;;;;;;;15.20;100.00;99093.91;108065;1241;62150;-67
2022/09/18 01:08:49;;;;;;;8.90;6.40;;;;;;;15.15;100.00;99096.70;108082;1241;59714;-69
2022/09/18 01:11:52;;;;;;;9.70;6.30;;;;;;;15.19;100.00;99099.27;108104;1241;72240;-69
2022/09/18 01:14:43;;;;;;;9.10;6.70;;;;;;;15.16;100.00;99097.98;107872;1241;71496;-67
2022/09/18 01:17:27;;;;;;;8.30;5.80;;;;;;;15.22;100.00;99103.29;108140;1241;68307;-68
2022/09/18 01:20:33;;;;;;;9.60;5.70;;;;;;;15.21;100.00;99095.30;108102;1241;72285;-70
2022/09/18 01:23:39;;;;;;;8.30;6.10;;;;;;;15.14;100.00;99100.54;107736;1244;62210;-68
2022/09/18 01:26:36;;;;;;;7.90;5.90;;;;;;;15.14;100.00;99101.06;107894;1244;59375;-68
2022/09/18 01:29:15;;;;;;;8.70;5.70;;;;;;;15.09;100.00;99100.88;108124;1241;74666;-69
2022/09/18 01:32:03;;;;;;;8.90;4.90;;;;;;;15.07;100.00;99109.05;107843;1244;70669;-68
2022/09/18 01:34:34;;;;;;;8.60;5.60;;;;;;;15.05;100.00;99100.66;108102;1241;67894;-68
2022/09/18 01:37:34;;;;;;;8.30;5.70;;;;;;;14.93;100.00;99096.44;108163;1241;73046;-69
2022/09/18 01:40:44;;;;;;;10.10;7.00;;;;;;;14.95;100.00;99099.63;107883;1241;60909;-68
2022/09/18 01:43:17;;;;;;;8.20;5.40;;;;;;;14.82;100.00;99105.91;108011;1243;58765;-68
2022/09/18 01:45:51;;;;;;;10.10;6.70;;;;;;;14.83;100.00;99104.58;107899;1244;72619;-68
2022/09/18 01:48:29;;;;;;;9.10;6.10;;;;;;;14.77;100.00;99098.21;108185;1241;69868;-69
2022/09/18 01:51:42;;;;;;;9.80;6.80;;;;;;;14.76;100.00;99097.22;108206;1241;69775;-68
2022/09/18 01:54:16;;;;;;;9.10;6.60;;;;;;;14.75;100.00;99086.61;107261;1250;74403;-69
2022/09/18 01:56:53;;;;;;;11.20;7.50;;;;;;;14.71;100.00;99085.20;107891;1244;61224;-68
2022/09/18 01:59:33;;;;;;;10.10;7.10;;;;;;;14.71;100.00;99088.04;107861;1241;59585;-67
2022/09/18 02:02:36;;;;;;;11.60;7.60;;;;;;;14.71;100.00;99076.48;107934;1244;74809;-69
2022/09/18 02:05:09;;;;;;;9.70;6.80;;;;;;;14.71;100.00;99077.46;107931;1241;70698;-71
2022/09/18 02:07:59;;;;;;;11.30;7.40;;;;;;;14.71;100.00;99072.08;107893;1244;69036;-67
2022/09/18 02:10:32;;;;;;;8.80;5.80;;;;;;;14.71;100.00;99079.42;107904;1244;71956;-66
2022/09/18 02:13:03;;;;;;;9.30;5.90;;;;;;;14.71;100.00;99081.52;107872;1241;62187;-66
2022/09/18 02:15:39;;;;;;;8.70;5.80;;;;;;;14.71;100.00;99082.23;107983;1244;59696;-67
2022/09/18 02:18:21;;;;;;;7.60;5.40;;;;;;;14.69;100.00;99089.66;108245;1241;70886;-66
2022/09/18 02:20:52;;;;;;;11.00;6.40;;;;;;;14.69;100.00;99103.65;107955;1242;73129;-67
2022/09/18 02:23:22;;;;;;;9.70;5.70;;;;;;;14.69;100.00;99124.54;108071;1243;70913;-67
2022/09/18 02:25:59;;;;;;;7.80;5.60;;;;;;;14.67;100.00;99138.11;108020;1241;73718;-67
2022/09/18 02:28:30;;;;;;;8.90;6.10;;;;;;;14.60;100.00;99134.11;107946;1241;63346;-67
2022/09/18 02:31:00;;;;;;;8.50;5.30;;;;;;;14.50;100.00;99128.46;107876;1244;60490;-72
2022/09/18 02:33:35;;;;;;;8.60;6.10;;;;;;;14.38;100.00;99120.42;108197;1241;73108;-68
2022/09/18 02:36:31;;;;;;;6.60;4.70;;;;;;;14.23;100.00;99103.64;108220;1241;69458;-66
2022/09/18 02:39:04;;;;;;;7.00;4.80;;;;;;;14.07;100.00;99064.06;107874;1242;69075;-67
2022/09/18 02:41:48;;;;;;;6.40;4.40;;;;;;;14.07;100.00;99037.16;108143;1241;73414;-70
2022/09/18 02:44:27;;;;;;;8.20;4.70;;;;;;;14.08;100.00;99031.33;108123;1241;62063;-69
2022/09/18 02:47:34;;;;;;;6.30;4.30;;;;;;;14.11;100.00;99011.54;107820;1241;61671;-70
2022/09/18 02:50:12;;;;;;;7.50;4.70;;;;;;;14.15;100.00;98991.61;107628;1244;75540;-68
2022/09/18 02:52:55;;;;;;;6.10;4.30;;;;;;;14.17;100.00;98990.13;108143;1241;70235;-69
2022/09/18 02:55:39;;;;;;;5.80;3.70;;;;;;;14.18;100.00;98979.39;108060;1241;68346;-69
2022/09/18 02:58:23;;;;;;;6.00;3.70;;;;;;;14.19;100.00;98975.41;108004;1241;71871;-69
2022/09/18 03:00:57;;;;;;;5.10;3.50;;;;;;;14.17;100.00;98977.89;107974;1241;60562;-69
2022/09/18 03:03:29;;;;;;;;;;;;;;;14.14;100.00;98979.48;108022;1241;59443;-68
2022/09/18 03:06:02;;;;;;;4.50;3.30;;;;;;;14.12;100.00;98985.31;107971;1240;74403;-69
2022/09/18 03:08:34;;;;;;;5.50;3.70;;;;;;;14.13;100.00;98979.95;107713;1244;71787;-70
2022/09/18 03:11:05;;;;;;;6.70;3.70;;;;;;;14.14;100.00;98974.27;107696;1244;68768;-70
2022/09/18 03:13:34;;;;;;;5.20;3.40;;;;;;;14.15;100.00;98972.39;108082;1241;73099;-67
2022/09/18 03:16:03;;;;;;;4.80;3.40;;;;;;;14.18;100.00;98966.30;107839;1244;61729;-70
2022/09/18 03:18:32;;;;;;;4.80;3.20;;;;;;;14.21;100.00;98957.95;107835;1244;58963;-69
2022/09/18 03:21:01;;;;;;;4.30;2.90;;;;;;;14.23;100.00;98958.27;107741;1241;71308;-69
2022/09/18 03:23:29;;;;;;;5.30;3.50;;;;;;;14.21;100.00;98961.38;107689;1241;72599;-68
2022/09/18 03:26:12;;;;;;;5.10;3.70;;;;;;;14.20;100.00;98966.02;107953;1241;69807;-67
2022/09/18 03:28:43;;;;;;;5.00;3.30;;;;;;;14.22;100.00;98976.83;107952;1241;72584;-68
2022/09/18 03:31:14;;;;;;;4.90;3.50;;;;;;;14.23;100.00;98974.55;107638;1244;61168;-68
2022/09/18 03:33:44;;;;;;;9.50;4.60;;;;;;;14.27;100.00;98972.89;107748;1244;59011;-69
2022/09/18 03:36:13;;;;;;;3.80;3.00;;;;;;;14.25;100.00;98971.16;107854;1241;70959;-69
2022/09/18 03:38:42;;;;;;;5.40;3.20;;;;;;;14.25;100.00;98972.94;107989;1241;72538;-67
2022/09/18 03:41:11;;;;;;;4.30;2.50;;;;;;;14.29;100.00;98973.33;108195;1241;70085;-70
2022/09/18 03:43:40;;;;;;;5.10;3.10;;;;;;;14.34;100.00;98967.37;108151;1241;73984;-73
2022/09/18 03:46:11;;;;;;;4.30;3.20;;;;;;;14.34;100.00;98969.12;108218;1241;62173;-69
2022/09/18 03:48:40;;;;;;;4.40;2.60;;;;;;;14.35;100.00;98974.91;107913;1241;60534;-69
2022/09/18 03:51:09;;;;;;;4.10;2.90;;;;;;;14.37;100.00;98981.25;108158;1241;73834;-68
2022/09/18 03:53:38;;;;;;;4.50;2.70;;;;;;;14.37;100.00;98991.02;108118;1240;69641;-68
2022/09/18 03:56:25;;;;;;;3.30;2.20;;;;;;;14.35;100.00;98989.10;108108;1241;71071;-70
2022/09/18 03:59:08;;;;;;;;;;;;;;;14.34;100.00;98995.57;108106;1241;74097;-68
2022/09/18 04:02:05;;;;;;;3.80;2.00;;;;;;;14.31;100.00;98991.87;108051;1241;61246;-70
2022/09/18 04:05:18;;;;;;;4.80;2.90;;;;;;;14.28;100.00;98986.60;107792;1241;59729;-70
2022/09/18 04:08:09;;;;;;;3.50;2.70;;;;;;;14.29;100.00;98995.88;108089;1241;72786;-71
2022/09/18 04:11:37;;;;;;;3.40;2.20;;;;;;;14.29;100.00;98987.17;107887;1241;70805;-69
2022/09/18 04:14:06;;;;;;;3.90;2.20;;;;;;;14.27;100.00;98984.40;107816;1244;69646;-70
2022/09/18 04:16:34;;;;;;;3.50;2.40;;;;;;;14.27;100.00;98978.98;107829;1244;75397;-69
2022/09/18 04:19:03;;;;;;;4.30;2.80;;;;;;;14.29;100.00;98968.98;107797;1242;61717;-70
2022/09/18 04:21:32;;;;;;;3.20;2.10;;;;;;;14.33;100.00;98968.34;107816;1244;59465;-70
2022/09/18 04:24:01;;;;;;;5.90;2.30;;;;;;;14.36;100.00;98965.27;107846;1242;74123;-70
2022/09/18 04:26:32;;;;;;;4.30;2.80;;;;;;;14.40;100.00;98964.24;107847;1241;72199;-69
2022/09/18 04:29:02;;;;;;;4.10;2.30;;;;;;;14.41;100.00;98955.17;108126;1241;69403;-67
2022/09/18 04:31:31;;;;;;;3.40;2.10;;;;;;;14.43;100.00;98953.35;108084;1241;73871;-71
2022/09/18 04:34:04;;;;;;;2.70;1.50;;;;;;;14.42;100.00;98962.36;107886;1241;63315;-69
2022/09/18 04:36:33;;;;;;;2.90;1.70;;;;;;;14.42;100.00;98942.78;108131;1241;59142;-69
2022/09/18 04:39:02;;;;;;;3.10;1.70;;;;;;;14.42;100.00;98947.02;107763;1241;74872;-69
2022/09/18 04:41:31;;;;;;;3.10;1.90;;;;;;;14.41;100.00;98967.55;107875;1241;73590;-66
2022/09/18 04:44:03;;;;;;;3.10;1.80;;;;;;;14.41;100.00;98975.85;107811;1241;70331;-70
2022/09/18 04:46:32;;;;;;;2.40;1.70;;;;;;;14.42;100.00;98970.79;108099;1241;74622;-71
2022/09/18 04:49:01;;;;;;;3.70;2.10;;;;;;;14.41;100.00;98952.66;108186;1241;60277;-69
2022/09/18 04:51:30;;;;;;;3.90;2.40;;;;;;;14.44;100.00;98959.90;108170;1241;58907;-70
2022/09/18 04:54:00;;;;;;;3.00;2.00;;;;;;;14.46;100.00;98966.30;108124;1241;73663;-69
2022/09/18 04:56:29;;;;;;;4.00;2.40;;;;;;;14.51;100.00;98969.91;108179;1241;71302;-70
2022/09/18 04:58:59;;;;;;;3.40;2.30;;;;;;;14.56;100.00;98971.33;108149;1241;69067;-71
2022/09/18 05:01:28;;;;;;;3.70;2.10;;;;;;;14.60;100.00;98973.45;107851;1242;73525;-67
2022/09/18 05:03:59;;;;;;;4.20;2.60;;;;;;;14.64;100.00;98971.33;107855;1242;63478;-67
2022/09/18 05:06:37;;;;;;;6.50;4.10;;;;;;;14.67;100.00;98970.27;107730;1241;61299;-70
2022/09/18 05:09:06;;;;;;;4.30;3.00;;;;;;;14.62;100.00;98964.83;107796;1242;75489;-70
2022/09/18 05:11:35;;;;;;;4.10;2.50;;;;;;;14.69;100.00;98978.42;107913;1241;70789;-71
2022/09/18 05:14:05;;;;;;;2.90;1.80;;;;;;;14.65;100.00;98977.27;108357;1241;70557;-68
2022/09/18 05:16:34;;;;;;;3.00;2.20;;;;;;;14.63;100.00;98971.55;108193;1241;73979;-71
2022/09/18 05:19:22;;;;;;;2.90;2.00;;;;;;;14.61;100.00;98972.85;108102;1241;61961;-68
2022/09/18 05:21:55;;;;;;;4.10;2.10;;;;;;;14.61;100.00;98978.59;107835;1241;62334;-69
2022/09/18 05:24:23;;;;;;;3.70;2.30;;;;;;;14.57;100.00;98984.12;107789;1241;74729;-70
2022/09/18 05:26:52;;;;;;;4.30;2.40;;;;;;;14.58;100.00;98994.36;107878;1242;71066;-67
2022/09/18 05:29:21;;;;;;;5.00;2.60;;;;;;;14.56;100.00;98997.69;108110;1241;71706;-68
2022/09/18 05:31:51;;;;;;;4.40;2.90;;;;;;;14.57;100.00;98990.95;108143;1241;71708;-66
2022/09/18 05:34:20;;;;;;;3.60;2.70;;;;;;;14.55;100.00;98991.55;107845;1241;63113;-68
2022/09/18 05:36:48;;;;;;;4.40;2.50;;;;;;;14.51;100.00;98991.14;107865;1244;62128;-71
2022/09/18 05:39:17;;;;;;;4.20;2.60;;;;;;;14.46;100.00;98982.55;107882;1242;75481;-71
2022/09/18 05:41:51;;;;;;;4.70;2.40;;;;;;;14.49;100.00;98988.38;107919;1241;72133;-72
2022/09/18 05:44:20;;;;;;;6.20;2.70;;;;;;;14.58;100.00;98993.66;107877;1240;70878;-70
2022/09/18 05:46:49;;;;;;;5.40;2.80;;;;;;;14.63;100.00;98991.32;108181;1241;72169;-70
2022/09/18 05:49:18;;;;;;;4.20;2.80;;;;;;;14.69;100.00;98989.95;107970;1242;62386;-69
2022/09/18 05:51:47;;;;;;;4.80;2.80;;;;;;;14.74;100.00;98991.25;107977;1242;59709;-70
2022/09/18 05:54:16;;;;;;;3.90;2.40;;;;;;;14.76;100.00;98995.21;108211;1241;72183;-67
2022/09/18 05:56:49;;;;;;;3.90;2.40;;;;;;;14.77;100.00;99003.21;108127;1241;72268;-69
2022/09/18 05:59:17;;;;;;;4.90;2.90;;;;;;;14.83;100.00;99006.10;107790;1241;69835;-72
2022/09/18 06:01:48;;;;;;;5.40;2.80;;;;;;;14.90;100.00;99002.44;107892;1241;73807;-72
2022/09/18 06:04:35;;;;;;;5.40;3.60;;;;;;;14.90;100.00;99008.02;108099;1241;63333;-67
2022/09/18 06:07:06;;;;;;;5.70;4.00;;;;;;;14.95;100.00;99014.96;108138;1241;60488;-72
2022/09/18 06:09:35;;;;;;;6.00;3.50;;;;;;;15.00;100.00;99020.31;108255;1241;72791;-69
2022/09/18 06:12:05;;;;;;;8.80;3.40;;;;;;;15.08;100.00;99022.95;108167;1241;69548;-68
2022/09/18 06:14:35;;;;;;;5.60;3.40;;;;;;;15.18;100.00;99021.05;108041;1244;68670;-72
2022/09/18 06:17:04;;;;;;;4.20;3.20;;;;;;;15.21;100.00;99030.08;108000;1241;71998;-70
2022/09/18 06:19:34;;;;;;;4.70;3.40;;;;;;;15.28;100.00;99030.09;108181;1241;60515;-70
2022/09/18 06:22:03;;;;;;;6.10;3.40;;;;;;;15.33;100.00;99042.47;108187;1241;59033;-72
2022/09/18 06:24:32;;;;;;;4.90;3.30;;;;;;;15.43;100.00;99048.71;108259;1241;75364;-75
2022/09/18 06:27:10;;;;;;;8.10;2.80;;;;;;;15.55;100.00;99052.52;108203;1241;71236;-72
2022/09/18 06:29:39;;;;;;;5.70;2.40;;;;;;;15.65;100.00;99049.88;108176;1241;67927;-71
2022/09/18 06:32:14;;;;;;;3.00;2.00;;;;;;;15.70;99.00;99044.42;107844;1241;70484;-70
2022/09/18 06:34:43;;;;;;;2.80;1.60;;;;;;;15.76;96.15;99051.77;107878;1241;63052;-70
2022/09/18 06:37:14;;;;;;;4.40;2.00;;;;;;;15.95;93.68;99052.13;108072;1241;57887;-71
2022/09/18 06:39:43;;;;;;;3.40;1.50;;;;;;;16.00;93.96;99056.25;108132;1241;73945;-72
2022/09/18 06:43:02;;;;;;;2.50;1.20;;;;;;;16.18;90.71;99058.98;107798;1241;73115;-70
2022/09/18 06:46:18;;;;;;;3.70;1.20;;;;;;;16.32;87.14;99070.92;107608;1243;69918;-71
2022/09/18 06:48:48;;;;;;;3.40;1.60;;;;;;;16.39;84.27;99074.16;108305;1241;74417;-73
2022/09/18 06:51:18;;;;;;;2.30;1.20;;;;;;;16.34;85.17;99083.19;108878;1242;62446;-71
2022/09/18 06:54:20;;;;;;;8.90;3.70;;;;;;;16.43;85.15;99086.31;108933;1241;58198;-72
2022/09/18 06:56:54;;;;;;;2.10;1.30;;;;;;;16.58;79.88;99085.81;107948;1241;75717;-71
2022/09/18 06:59:25;;;;;;;3.00;1.10;;;;;;;16.56;77.90;99099.90;107939;1243;61933;-72
2022/09/18 07:01:54;;;;;;;1.10;1.00;;;;;;;16.61;76.32;99105.19;108048;1244;68183;-72
2022/09/18 07:04:41;;;;;;;1.10;0.80;;;;;;;16.67;77.06;99108.98;108162;1241;73938;-70
2022/09/18 07:07:10;;;;;;;1.10;0.70;;;;;;;16.79;74.28;99108.26;108163;1241;58646;-71
2022/09/18 07:09:38;;;;;;;5.20;2.70;;;;;;;16.89;68.54;99107.50;108062;1244;61293;-73
2022/09/18 07:13:01;;;;;;;2.10;1.30;;;;;;;16.88;68.89;99111.76;108215;1239;73195;-72
2022/09/18 07:15:30;;;;;;;3.50;1.10;;;;;;;16.84;68.84;99120.48;107852;1242;60903;-76
2022/09/18 07:18:03;;;;;;;2.70;1.00;;;;;;;16.91;68.38;99114.36;108105;1244;61020;-75
2022/09/18 07:20:32;;;;;;;1.50;0.90;;;;;;;17.07;67.91;99116.36;108124;1241;73955;-77
2022/09/18 07:23:01;;;;;;;4.40;1.30;;;;;;;17.19;66.37;99119.95;107984;1242;57999;-73
2022/09/18 07:25:40;;;;;;;2.20;0.80;;;;;;;17.29;65.77;99127.73;108044;1240;61084;-79
2022/09/18 07:28:10;;;;;;;2.80;1.30;;;;;;;17.38;65.12;99127.23;108101;1241;62917;-76
2022/09/18 07:30:45;;;;;;;1.90;1.10;;;;;;;17.51;63.88;99133.98;108149;1241;61548;-67
2022/09/18 07:33:15;;;;;;;3.80;1.70;;;;;;;17.68;60.16;99143.86;108133;1241;69713;-69
2022/09/18 07:35:47;;;;;;;4.00;2.60;;;;;;;17.78;56.85;99144.73;108171;1241;73858;-65
2022/09/18 07:38:17;;;;;;;2.10;1.00;;;;;;;17.84;56.89;99143.45;107930;1241;59632;-70
2022/09/18 07:40:53;;;;;;;1.40;0.80;;;;;;;17.90;56.37;99152.42;108136;1241;61687;-69
2022/09/18 07:43:44;;;;;;;1.60;0.90;;;;;;;17.99;57.33;99149.26;107960;1241;63647;-70
2022/09/18 07:46:13;;;;;;;0.60;0.50;;;;;;;18.06;57.17;99147.73;107774;1243;62620;-70
2022/09/18 07:48:44;;;;;;;0.70;0.50;;;;;;;18.12;56.33;99146.42;107853;1244;70521;-77
2022/09/18 07:51:21;;;;;;;2.00;0.40;;;;;;;18.12;55.94;99149.23;107955;1242;74386;-75
2022/09/18 07:53:54;;;;;;;1.50;0.60;;;;;;;18.17;56.42;99150.51;108138;1241;61834;-76
2022/09/18 07:56:32;;;;;;;1.20;0.30;;;;;;;18.18;55.27;99158.77;108204;1241;62112;-76
2022/09/18 07:59:02;;;;;;;1.20;0.50;;;;;;;18.22;53.27;99159.36;107926;1244;64627;-75
2022/09/18 08:01:34;;;;;;;4.70;1.80;;;;;;;18.19;53.98;99154.70;108264;1243;62741;-76
2022/09/18 08:04:05;;;;;;;2.10;0.70;;;;;;;18.29;53.03;99157.63;107995;1242;70145;-75
2022/09/18 08:06:37;;;;;;;10.00;4.70;;;;;;;18.41;50.70;99159.54;108102;1241;63812;-80
2022/09/18 08:09:15;;;;;;;0.80;0.30;;;;;;;18.47;47.47;99161.02;108149;1241;60557;-75
2022/09/18 08:11:53;;;;;;;0.10;0.10;;;;;;;18.46;47.13;99157.48;108196;1241;61797;-77
2022/09/18 08:15:09;;;;;;;1.40;0.30;;;;;;;18.39;48.90;99163.39;107970;1241;74865;-78
2022/09/18 08:18:27;;;;;;;0.60;0.10;;;;;;;18.47;47.15;99171.27;107365;1243;72715;-72
2022/09/18 08:21:30;;;;;;;1.60;0.40;;;;;;;18.59;48.69;99177.52;108040;1241;70536;-75
2022/09/18 08:24:02;;;;;;;1.60;0.50;;;;;;;18.59;48.74;99171.83;107834;1241;74665;-73
2022/09/18 08:26:34;;;;;;;3.10;1.50;;;;;;;18.62;47.17;99177.94;107893;1241;61903;-76
2022/09/18 08:29:05;;;;;;;4.40;0.90;;;;;;;18.63;47.58;99184.58;108018;1241;60819;-77
2022/09/18 08:31:35;;;;;;;7.50;2.90;;;;;;;18.62;47.03;99183.52;108022;1241;74366;-78
2022/09/18 08:34:08;;;;;;;2.70;1.10;;;;;;;18.59;46.21;99185.25;108132;1241;61592;-76
2022/09/18 08:36:37;;;;;;;2.00;0.30;;;;;;;18.59;45.29;99197.63;107943;1242;60082;-77
2022/09/18 08:39:21;;;;;;;0.80;0.60;;;;;;;18.53;44.05;99204.88;108114;1241;64398;-79
2022/09/18 08:43:13;;;;;;;2.30;0.30;;;;;;;18.61;42.61;99216.87;107465;1247;61761;-75
2022/09/18 08:46:05;;;;;;;2.20;0.40;;;;;;;18.61;42.81;99238.94;107337;1247;61761;-79
2022/09/18 08:48:47;;;;;;;5.70;2.10;;;;;;;18.66;43.56;99231.27;107965;1240;74560;-77
2022/09/18 08:51:50;;;;;;;0.40;0.40;;;;;;;18.77;43.24;99240.19;107976;1244;62020;-79
2022/09/18 08:54:42;;;;;;;0.60;0.20;;;;;;;18.79;42.71;99232.66;107841;1244;70524;-79
2022/09/18 08:58:13;;;;;;;1.80;0.80;;;;;;;18.86;42.35;99243.10;108049;1242;62758;-77
2022/09/18 09:00:57;;;;;;;2.10;0.30;;;;;;;18.85;42.28;99256.77;108043;1242;61627;-78
2022/09/18 09:04:07;;;;;;;0.10;0.10;;;;;;;18.86;41.37;99266.58;107787;1244;61712;-77
2022/09/18 09:07:04;;;;;;;1.30;0.60;;;;;;;18.98;42.04;99254.61;107803;1244;74873;-78
2022/09/18 09:10:27;;;;;;;0.60;0.30;;;;;;;18.97;42.16;99264.09;108179;1241;62260;-78
2022/09/18 09:13:30;;;;;;;1.80;0.70;;;;;;;18.76;42.56;99265.05;107758;1242;71496;-79
2022/09/18 09:16:04;;;;;;;1.50;0.80;;;;;;;18.69;41.69;99285.29;107924;1241;72868;-78
2022/09/18 09:19:04;;;;;;;2.30;0.60;;;;;;;18.50;41.46;99298.84;108071;1241;60744;-78
2022/09/18 09:21:54;;;;;;;2.40;0.60;;;;;;;18.46;41.48;99298.83;108178;1241;60743;-76
2022/09/18 09:25:02;;;;;;;0.70;0.40;;;;;;;18.53;40.99;99318.87;107880;1243;74145;-79
2022/09/18 09:28:08;;;;;;;1.50;0.60;;;;;;;18.75;40.53;99320.46;107919;1241;62209;-77
2022/09/18 09:31:02;;;;;;;2.10;1.20;;;;;;;18.86;40.24;99309.64;107938;1244;70586;-79
2022/09/18 09:34:20;;;;;;;1.50;0.40;;;;;;;18.92;40.53;99314.67;108057;1244;63579;-80
2022/09/18 09:37:41;;;;;;;0.70;0.40;;;;;;;18.88;39.65;99330.05;107994;1241;58976;-77
2022/09/18 09:40:24;;;;;;;2.00;0.40;;;;;;;18.78;39.97;99327.52;107921;1244;59588;-78
2022/09/18 09:43:31;;;;;;;3.00;0.80;;;;;;;18.67;40.55;99336.21;108059;1244;63746;-78
2022/09/18 09:46:26;;;;;;;2.00;0.60;;;;;;;18.69;39.94;99351.52;107985;1241;71480;-77
2022/09/18 09:49:11;;;;;;;1.20;0.30;;;;;;;18.78;39.32;99340.39;107897;1240;60336;-75
2022/09/18 09:52:06;;;;;;;0.40;0.30;;;;;;;18.84;40.00;99349.15;107995;1244;64364;-75
2022/09/18 09:54:38;;;;;;;2.20;0.30;;;;;;;18.82;39.41;99366.28;108044;1243;61391;-75
2022/09/18 09:57:48;;;;;;;2.20;0.60;;;;;;;18.60;40.79;99389.63;107949;1243;58398;-79
2022/09/18 10:00:19;;;;;;;0.30;0.30;;;;;;;17.96;47.36;99399.38;107948;1243;63024;-76
2022/09/18 10:03:30;;;;;;;1.10;0.30;;;;;;;17.22;50.88;99408.39;107980;1242;70054;-79
2022/09/18 10:06:12;;;;;;;1.10;0.40;;;;;;;16.61;52.99;99417.84;108581;1241;59758;-78
2022/09/18 10:09:31;;;;;;;1.10;0.60;;;;;;;16.18;54.37;99423.48;108181;1244;71983;-78
2022/09/18 10:12:44;;;;;;;2.30;0.80;;;;;;;15.81;56.31;99426.33;107832;1244;59659;-79
2022/09/18 10:15:20;;;;;;;2.00;1.10;;;;;;;15.56;58.52;99433.70;108308;1241;61362;-78
2022/09/18 10:17:56;;;;;;;2.00;0.50;;;;;;;15.70;57.93;99439.27;108607;1241;74115;-78
2022/09/18 10:20:29;;;;;;;0.90;0.40;;;;;;;15.77;57.81;99445.34;109273;1244;69431;-77
2022/09/18 10:23:27;;;;;;;0.70;0.40;;;;;;;15.62;58.62;99453.88;108998;1241;70570;-76
2022/09/18 10:26:01;;;;;;;1.30;0.50;;;;;;;15.78;57.58;99454.15;108174;1243;73315;-78
2022/09/18 10:28:31;;;;;;;0.60;0.40;;;;;;;15.92;56.57;99463.14;108047;1242;61227;-80
2022/09/18 10:31:09;;;;;;;2.80;0.40;;;;;;;16.08;55.72;99457.46;107936;1243;60243;-79
2022/09/18 10:33:42;;;;;;;0.50;0.30;;;;;;;16.53;54.79;99462.95;108043;1241;74142;-79
2022/09/18 10:36:38;;;;;;;2.60;0.40;;;;;;;16.91;53.84;99471.23;107889;1242;61333;-76
2022/09/18 10:39:30;;;;;;;0.40;0.30;;;;;;;17.53;52.15;99474.20;108110;1241;67947;-80
2022/09/18 10:42:11;;;;;;;1.70;0.40;;;;;;;18.06;50.52;99482.13;108139;1241;63086;-77
2022/09/18 10:44:50;;;;;;;1.40;0.40;;;;;;;18.15;48.83;99482.09;107837;1244;59662;-76
2022/09/18 10:47:29;;;;;;;0.20;0.20;;;;;;;17.96;48.60;99484.51;107899;1244;59672;-77
2022/09/18 10:50:10;;;;;;;0.30;0.30;;;;;;;17.75;47.34;99508.89;107918;1243;63661;-81
2022/09/18 10:52:41;;;;;;;1.00;0.30;;;;;;;17.74;44.20;99518.04;107906;1243;61660;-80
2022/09/18 10:55:23;;;;;;;1.20;0.40;;;;;;;18.04;46.14;99507.32;107560;1245;59219;-77
2022/09/18 10:58:14;;;;;;;0.70;0.20;;;;;;;18.38;47.20;99513.89;107906;1244;63378;-77
2022/09/18 11:01:02;;;;;;;2.60;0.50;;;;;;;18.57;46.04;99521.02;107797;1243;59626;-75
2022/09/18 11:03:46;;;;;;;0.40;0.30;;;;;;;18.63;45.38;99531.73;107822;1243;59563;-76
2022/09/18 11:06:28;;;;;;;0.40;0.40;;;;;;;18.48;46.44;99539.56;107780;1243;63024;-74
2022/09/18 11:09:07;;;;;;;2.20;0.50;;;;;;;18.28;47.70;99544.11;107816;1244;72300;-73
2022/09/18 11:11:43;;;;;;;1.10;0.30;;;;;;;18.03;48.88;99560.84;107803;1243;70931;-77
2022/09/18 11:14:26;;;;;;;0.50;0.30;;;;;;;17.85;49.12;99567.27;107872;1243;62919;-73
2022/09/18 11:17:23;;;;;;;0.80;0.50;;;;;;;17.69;49.29;99577.16;107792;1243;60539;-74
2022/09/18 11:19:56;;;;;;;0.40;0.30;;;;;;;17.99;49.48;99572.84;107892;1243;59236;-76
2022/09/18 11:22:41;;;;;;;1.20;0.60;;;;;;;18.38;49.18;99572.84;108000;1243;63463;-77
2022/09/18 11:25:28;;;;;;;1.10;0.50;;;;;;;18.75;48.39;99569.89;107976;1242;72227;-81
2022/09/18 11:28:29;;;;;;;1.60;0.30;;;;;;;19.16;47.63;99573.91;107804;1243;70098;-75
2022/09/18 11:31:20;;;;;;;0.80;0.40;;;;;;;19.82;42.18;99568.68;107761;1243;74316;-80
2022/09/18 11:33:57;;;;;;;1.10;0.20;;;;;;;20.68;38.05;99590.85;107979;1242;61900;-79
2022/09/18 11:36:33;;;;;;;5.90;1.00;;;;;;;20.53;35.39;99579.36;107937;1243;60315;-75
2022/09/18 11:39:14;;;;;;;0.60;0.30;;;;;;;20.56;37.49;99595.28;107796;1243;66523;-75
2022/09/18 11:41:48;;;;;;;0.50;0.30;;;;;;;20.59;39.41;99599.41;107590;1244;72867;-73
2022/09/18 11:44:31;;;;;;;0.70;0.30;;;;;;;20.61;39.56;99595.63;107771;1244;68528;-76
2022/09/18 11:47:36;;;;;;;1.00;0.20;;;;;;;20.82;39.42;99602.90;108211;1241;63267;-78
2022/09/18 11:50:08;;;;;;;1.00;0.20;;;;;;;20.91;39.88;99620.09;107942;1244;59546;-75
2022/09/18 11:52:44;;;;;;;0.30;0.10;;;;;;;20.80;40.79;99608.82;108111;1241;59712;-78
2022/09/18 11:55:54;;;;;;;0.30;0.20;;;;;;;20.95;40.18;99607.27;107842;1241;64483;-79
2022/09/18 11:58:30;;;;;;;0.20;0.20;;;;;;;20.64;39.84;99611.67;107828;1242;61238;-77
2022/09/18 12:01:37;;;;;;;1.00;0.30;;;;;;;20.38;39.95;99619.11;107883;1241;60971;-74
2022/09/18 12:04:20;;;;;;;2.00;1.00;;;;;;;19.84;41.26;99633.28;108058;1241;74439;-77
2022/09/18 12:07:13;;;;;;;1.20;0.70;;;;;;;19.63;40.23;99631.48;107864;1243;59661;-77
2022/09/18 12:10:42;;;;;;;3.90;1.20;;;;;;;19.01;41.76;99634.38;107877;1241;59603;-75
2022/09/18 12:13:37;;;;;;;2.20;1.10;;;;;;;18.60;42.80;99633.63;107783;1241;73620;-78
2022/09/18 12:16:33;;;;;;;3.10;1.80;;;;;;;18.36;44.73;99633.02;107943;1241;72611;-76
2022/09/18 12:19:39;;;;;;;2.00;0.80;;;;;;;18.66;44.98;99648.46;108211;1241;70057;-77
2022/09/18 12:22:33;;;;;;;1.50;0.60;;;;;;;19.32;44.60;99649.04;108096;1241;73639;-76